createdAt,value
2022-10-31T00:02:02.778Z,2.35
2022-10-31T00:04:43.177Z,2.78
2022-10-31T00:07:10.603Z,2.22
2022-10-31T00:09:38.094Z,3.05
2022-10-31T00:12:12.175Z,2.92
2022-10-31T00:14:41.524Z,2.33
2022-10-31T00:17:08.886Z,2.42
2022-10-31T00:19:42.571Z,2.50
2022-10-31T00:22:09.982Z,2.30
2022-10-31T00:24:40.196Z,2.45
2022-10-31T00:27:18.512Z,2.42
2022-10-31T00:29:45.994Z,2.33
2022-10-31T00:32:13.430Z,2.15
2022-10-31T00:34:50.009Z,2.70
2022-10-31T00:37:17.405Z,2.60
2022-10-31T00:39:46.294Z,2.28
2022-10-31T00:42:20.003Z,2.53
2022-10-31T00:44:47.354Z,2.55
2022-10-31T00:47:14.729Z,2.47
2022-10-31T00:49:49.036Z,2.38
2022-10-31T00:52:18.893Z,1.90
2022-10-31T00:54:46.261Z,2.30
2022-10-31T00:57:19.935Z,1.90
2022-10-31T00:59:47.325Z,2.13
2022-10-31T01:02:14.876Z,2.20
2022-10-31T01:04:48.881Z,2.10
2022-10-31T01:07:22.984Z,2.42
2022-10-31T01:09:59.700Z,2.30
2022-10-31T01:12:27.100Z,2.10
2022-10-31T01:14:54.480Z,2.28
2022-10-31T01:17:28.699Z,2.35
2022-10-31T01:19:56.107Z,2.38
2022-10-31T01:22:25.711Z,2.08
2022-10-31T01:24:59.754Z,2.00
2022-10-31T01:27:27.219Z,2.30
2022-10-31T01:29:54.781Z,2.45
2022-10-31T01:32:31.270Z,2.30
2022-10-31T01:34:58.669Z,2.10
2022-10-31T01:37:28.071Z,2.30
2022-10-31T01:40:03.599Z,2.10
2022-10-31T01:42:31.051Z,2.35
2022-10-31T01:45:01.601Z,2.40
2022-10-31T01:47:41.622Z,2.70
2022-10-31T01:50:25.157Z,2.22
2022-10-31T01:53:00.619Z,2.10
2022-10-31T01:55:34.947Z,2.67
2022-10-31T01:58:26.714Z,2.30
2022-10-31T02:01:06.693Z,2.13
2022-10-31T02:03:49.004Z,2.15
2022-10-31T02:06:38.130Z,1.80
2022-10-31T02:09:15.618Z,2.22
2022-10-31T02:11:45.100Z,2.17
2022-10-31T02:14:13.060Z,2.17
2022-10-31T02:16:46.712Z,1.90
2022-10-31T02:19:20.922Z,2.25
2022-10-31T02:22:10.624Z,2.25
2022-10-31T02:24:52.616Z,2.15
2022-10-31T02:27:58.915Z,2.25
2022-10-31T02:30:33.667Z,2.92
2022-10-31T02:33:30.634Z,2.08
2022-10-31T02:36:17.596Z,2.40
2022-10-31T02:39:03.626Z,2.13
2022-10-31T02:41:42.307Z,2.55
2022-10-31T02:44:34.666Z,2.40
2022-10-31T02:47:15.740Z,2.35
2022-10-31T02:50:23.683Z,2.30
2022-10-31T02:52:54.690Z,2.10
2022-10-31T02:55:33.014Z,2.50
2022-10-31T02:58:12.700Z,2.63
2022-10-31T03:01:01.817Z,2.40
2022-10-31T03:04:05.815Z,2.42
2022-10-31T03:07:20.812Z,2.47
2022-10-31T03:10:17.442Z,2.35
2022-10-31T03:16:14.736Z,2.03
2022-10-31T03:19:01.105Z,2.30
2022-10-31T03:21:43.655Z,2.30
2022-10-31T03:24:20.889Z,2.58
2022-10-31T03:27:00.336Z,2.10
2022-10-31T03:29:38.850Z,2.20
2022-10-31T03:32:11.983Z,2.40
2022-10-31T03:34:47.946Z,2.75
2022-10-31T03:37:18.985Z,2.90
2022-10-31T03:39:55.867Z,2.72
2022-10-31T03:42:27.081Z,2.85
2022-10-31T03:45:23.931Z,2.30
2022-10-31T03:47:52.563Z,2.90
2022-10-31T03:50:20.717Z,2.78
2022-10-31T03:53:16.928Z,2.63
2022-10-31T03:56:00.451Z,2.30
2022-10-31T03:58:39.888Z,2.25
2022-10-31T04:01:10.944Z,2.40
2022-10-31T04:03:59.930Z,2.83
2022-10-31T04:06:28.631Z,2.83
2022-10-31T04:09:07.897Z,3.00
2022-10-31T04:11:41.868Z,2.92
2022-10-31T04:14:18.891Z,2.47
2022-10-31T04:16:46.700Z,2.47
2022-10-31T04:19:15.600Z,2.65
2022-10-31T04:21:52.884Z,2.90
2022-10-31T04:24:24.429Z,2.42
2022-10-31T04:26:51.808Z,2.88
2022-10-31T04:29:25.471Z,3.15
2022-10-31T04:31:53.117Z,3.13
2022-10-31T04:34:20.600Z,3.25
2022-10-31T04:36:54.534Z,2.83
2022-10-31T04:39:26.716Z,2.92
2022-10-31T04:41:54.263Z,3.10
2022-10-31T04:44:27.924Z,2.60
2022-10-31T04:46:55.301Z,3.00
2022-10-31T04:49:22.706Z,3.00
2022-10-31T04:51:57.239Z,2.58
2022-10-31T04:54:24.598Z,3.13
2022-10-31T04:56:53.977Z,3.00
2022-10-31T04:59:28.016Z,2.88
2022-10-31T05:01:55.593Z,3.17
2022-10-31T05:04:43.954Z,3.50
2022-10-31T05:07:11.389Z,3.20
2022-10-31T05:09:38.746Z,3.40
2022-10-31T05:12:12.933Z,2.88
2022-10-31T05:14:41.519Z,3.25
2022-10-31T05:17:10.939Z,3.65
2022-10-31T05:19:44.943Z,3.30
2022-10-31T05:22:12.596Z,3.10
2022-10-31T05:24:39.972Z,3.70
2022-10-31T05:27:13.929Z,3.33
2022-10-31T05:29:41.715Z,2.78
2022-10-31T05:32:09.073Z,3.17
2022-10-31T05:34:42.954Z,3.05
2022-10-31T05:37:10.340Z,2.90
2022-10-31T05:39:42.331Z,3.00
2022-10-31T05:42:16.359Z,2.63
2022-10-31T05:44:43.856Z,3.20
2022-10-31T05:47:11.200Z,3.00
2022-10-31T05:49:45.395Z,2.95
2022-10-31T05:52:15.199Z,3.00
2022-10-31T05:54:42.570Z,2.70
2022-10-31T05:57:16.182Z,2.47
2022-10-31T05:59:43.570Z,2.88
2022-10-31T06:02:10.958Z,2.72
2022-10-31T06:04:45.217Z,3.33
2022-10-31T06:07:19.319Z,3.35
2022-10-31T06:09:53.136Z,2.90
2022-10-31T06:12:20.488Z,2.65
2022-10-31T06:14:47.956Z,2.53
2022-10-31T06:17:22.153Z,2.88
2022-10-31T06:22:44.173Z,3.08
2022-10-31T06:25:11.668Z,2.30
2022-10-31T06:27:39.096Z,2.67
2022-10-31T06:30:13.249Z,2.83
2022-10-31T06:32:42.420Z,1.85
2022-10-31T06:35:16.617Z,2.38
2022-10-31T06:37:50.568Z,2.65
2022-10-31T06:40:18.376Z,2.65
2022-10-31T06:42:47.615Z,2.13
2022-10-31T06:45:25.240Z,2.03
2022-10-31T06:48:16.119Z,2.33
2022-10-31T06:50:48.449Z,2.67
2022-10-31T06:53:16.603Z,2.42
2022-10-31T06:55:44.435Z,2.55
2022-10-31T06:58:19.604Z,2.13
2022-10-31T07:00:49.259Z,2.20
2022-10-31T07:03:17.534Z,2.92
2022-10-31T07:05:52.503Z,2.00
2022-10-31T07:08:20.124Z,2.53
2022-10-31T07:11:00.450Z,2.30
2022-10-31T07:13:28.138Z,2.47
2022-10-31T07:16:08.594Z,2.42
2022-10-31T07:18:36.554Z,2.70
2022-10-31T07:21:04.696Z,2.50
2022-10-31T07:23:39.467Z,2.95
2022-10-31T07:26:07.018Z,2.53
2022-10-31T07:28:39.182Z,3.15
2022-10-31T07:31:13.845Z,2.90
2022-10-31T07:33:41.616Z,2.50
2022-10-31T07:36:09.284Z,3.28
2022-10-31T07:38:43.433Z,2.80
2022-10-31T07:41:13.170Z,2.50
2022-10-31T07:43:43.639Z,3.25
2022-10-31T07:46:19.170Z,2.70
2022-10-31T07:48:47.038Z,2.28
2022-10-31T07:51:14.740Z,2.40
2022-10-31T07:53:49.212Z,2.20
2022-10-31T07:56:17.182Z,2.00
2022-10-31T07:58:44.741Z,2.53
2022-10-31T08:01:22.299Z,2.88
2022-10-31T08:03:56.407Z,2.22
2022-10-31T08:06:37.477Z,2.95
2022-10-31T08:09:05.495Z,2.30
2022-10-31T08:11:33.289Z,2.55
2022-10-31T08:14:07.385Z,2.20
2022-10-31T08:16:36.358Z,2.55
2022-10-31T08:19:04.075Z,2.60
2022-10-31T08:21:38.307Z,2.40
2022-10-31T08:24:06.376Z,2.20
2022-10-31T08:26:37.162Z,2.30
2022-10-31T08:29:11.366Z,2.67
2022-10-31T08:31:41.855Z,2.70
2022-10-31T08:34:10.868Z,2.55
2022-10-31T08:36:44.392Z,2.72
2022-10-31T08:39:11.937Z,2.30
2022-10-31T08:41:39.423Z,2.95
2022-10-31T08:44:13.326Z,2.63
2022-10-31T08:46:40.803Z,2.50
2022-10-31T08:49:08.432Z,2.35
2022-10-31T08:51:42.373Z,2.28
2022-10-31T08:54:10.007Z,2.47
2022-10-31T08:56:37.514Z,2.40
2022-10-31T08:59:11.348Z,2.50
2022-10-31T09:01:39.140Z,2.53
2022-10-31T09:04:20.394Z,2.20
2022-10-31T09:07:20.192Z,2.75
2022-10-31T09:09:55.399Z,2.30
2022-10-31T09:12:25.333Z,2.45
2022-10-31T09:14:53.088Z,2.72
2022-10-31T09:17:27.299Z,2.40
2022-10-31T09:19:55.018Z,2.95
2022-10-31T09:22:22.647Z,2.55
2022-10-31T09:24:56.354Z,2.80
2022-10-31T09:27:23.823Z,2.67
2022-10-31T09:29:51.750Z,3.00
2022-10-31T09:32:26.346Z,2.40
2022-10-31T09:34:54.010Z,2.70
2022-10-31T09:37:21.900Z,2.38
2022-10-31T09:39:56.530Z,2.45
2022-10-31T09:42:35.863Z,2.05
2022-10-31T09:45:38.431Z,2.58
2022-10-31T09:48:25.119Z,2.45
2022-10-31T09:51:19.393Z,2.80
2022-10-31T09:54:03.247Z,2.55
2022-10-31T09:56:39.553Z,2.47
2022-10-31T09:59:13.559Z,2.47
2022-10-31T10:01:53.440Z,2.75
2022-10-31T10:04:45.690Z,2.35
2022-10-31T10:07:40.511Z,2.40
2022-10-31T10:10:36.250Z,2.58
2022-10-31T10:13:52.402Z,2.30
2022-10-31T10:16:36.273Z,2.33
2022-10-31T10:19:10.440Z,2.30
2022-10-31T10:21:55.535Z,2.13
2022-10-31T10:24:55.342Z,2.38
2022-10-31T10:27:47.132Z,2.38
2022-10-31T10:30:33.420Z,2.78
2022-10-31T10:33:20.764Z,2.15
2022-10-31T10:36:07.359Z,2.22
2022-10-31T10:38:40.496Z,2.10
2022-10-31T10:41:24.377Z,2.58
2022-10-31T10:43:53.025Z,2.42
2022-10-31T10:46:45.464Z,2.35
2022-10-31T10:49:38.938Z,2.25
2022-10-31T10:52:43.479Z,2.90
2022-10-31T10:55:18.581Z,2.40
2022-10-31T10:58:16.428Z,2.67
2022-10-31T11:00:51.074Z,2.78
2022-10-31T11:03:26.488Z,2.40
2022-10-31T11:06:02.830Z,2.58
2022-10-31T11:08:42.436Z,2.13
2022-10-31T11:11:18.778Z,2.13
2022-10-31T11:13:56.732Z,2.10
2022-10-31T11:16:53.202Z,2.35
2022-10-31T11:19:31.488Z,2.40
2022-10-31T11:22:09.338Z,2.72
2022-10-31T11:24:49.575Z,2.42
2022-10-31T11:27:26.988Z,2.58
2022-10-31T11:30:11.483Z,2.45
2022-10-31T11:32:49.902Z,2.20
2022-10-31T11:35:27.489Z,2.20
2022-10-31T11:38:00.061Z,2.22
2022-10-31T11:40:35.420Z,2.33
2022-10-31T11:43:03.290Z,2.63
2022-10-31T11:45:34.890Z,2.47
2022-10-31T11:48:22.407Z,2.55
2022-10-31T11:50:58.549Z,2.70
2022-10-31T11:53:38.536Z,2.40
2022-10-31T11:56:17.384Z,2.53
2022-10-31T11:59:02.444Z,2.70
2022-10-31T12:01:32.171Z,2.38
2022-10-31T12:04:12.435Z,2.70
2022-10-31T12:06:48.611Z,2.78
2022-10-31T12:09:30.422Z,2.47
2022-10-31T12:12:22.706Z,2.38
2022-10-31T12:15:16.703Z,2.25
2022-10-31T12:18:17.315Z,2.50
2022-10-31T12:21:43.587Z,2.38
2022-10-31T12:24:40.823Z,2.63
2022-10-31T12:27:29.497Z,2.80
2022-10-31T12:30:21.438Z,2.35
2022-10-31T12:33:22.561Z,2.30
2022-10-31T12:36:12.498Z,2.15
2022-10-31T12:39:18.690Z,3.20
2022-10-31T12:41:59.642Z,2.75
2022-10-31T12:44:52.473Z,2.70
2022-10-31T12:47:28.820Z,2.92
2022-10-31T12:50:20.562Z,3.17
2022-10-31T12:53:27.662Z,2.97
2022-10-31T12:56:26.573Z,3.30
2022-10-31T12:59:32.543Z,3.28
2022-10-31T13:02:19.648Z,3.35
2022-10-31T13:05:06.677Z,2.50
2022-10-31T13:08:05.582Z,2.72
2022-10-31T13:10:47.614Z,2.85
2022-10-31T13:13:39.579Z,3.10
2022-10-31T13:16:21.955Z,2.40
2022-10-31T13:19:21.592Z,2.83
2022-10-31T13:22:10.099Z,3.10
2022-10-31T13:25:05.551Z,3.00
2022-10-31T13:27:55.401Z,2.60
2022-10-31T13:30:39.608Z,2.80
2022-10-31T13:33:12.597Z,2.60
2022-10-31T13:35:56.581Z,3.08
2022-10-31T13:38:42.907Z,2.80
2022-10-31T13:41:52.596Z,2.65
2022-10-31T13:44:27.769Z,2.65
2022-10-31T13:47:04.648Z,3.08
2022-10-31T13:49:32.211Z,3.08
2022-10-31T13:52:18.551Z,3.20
2022-10-31T13:54:48.610Z,3.35
2022-10-31T13:57:34.253Z,3.55
2022-10-31T14:00:05.044Z,3.00
2022-10-31T14:02:42.604Z,2.72
2022-10-31T14:05:43.704Z,3.00
2022-10-31T14:08:29.557Z,2.85
2022-10-31T14:10:58.000Z,3.10
2022-10-31T14:13:44.559Z,3.00
2022-10-31T14:16:33.052Z,3.38
2022-10-31T14:19:13.550Z,2.88
2022-10-31T14:21:46.692Z,3.25
2022-10-31T14:24:32.833Z,3.05
2022-10-31T14:27:24.749Z,3.33
2022-10-31T14:29:58.605Z,3.08
2022-10-31T14:32:27.816Z,2.63
2022-10-31T14:34:57.901Z,3.05
2022-10-31T14:38:08.888Z,3.47
2022-10-31T14:41:10.397Z,3.22
2022-10-31T14:43:59.844Z,3.08
2022-10-31T14:46:37.064Z,3.60
2022-10-31T14:49:36.531Z,3.08
2022-10-31T14:52:06.800Z,2.85
2022-10-31T14:54:52.676Z,3.08
2022-10-31T14:57:36.390Z,3.15
2022-10-31T15:00:13.687Z,2.72
2022-10-31T15:03:16.245Z,4.03
2022-10-31T15:06:12.836Z,3.65
2022-10-31T15:08:49.925Z,3.25
2022-10-31T15:11:32.784Z,3.78
2022-10-31T15:14:01.268Z,3.20
2022-10-31T15:16:48.675Z,3.30
2022-10-31T15:19:24.257Z,2.97
2022-10-31T15:22:00.654Z,3.00
2022-10-31T15:24:36.542Z,2.85
2022-10-31T15:27:11.727Z,3.50
2022-10-31T15:29:50.549Z,3.47
2022-10-31T15:32:35.695Z,3.35
2022-10-31T15:35:15.995Z,3.47
2022-10-31T15:37:49.702Z,3.42
2022-10-31T15:40:20.259Z,3.25
2022-10-31T15:43:04.854Z,3.45
2022-10-31T15:45:32.922Z,2.90
2022-10-31T15:48:29.736Z,3.25
2022-10-31T15:51:03.565Z,3.40
2022-10-31T15:53:50.846Z,3.25
2022-10-31T15:56:27.827Z,3.80
2022-10-31T15:59:03.698Z,4.22
2022-10-31T16:01:33.946Z,4.25
2022-10-31T16:04:15.823Z,4.18
2022-10-31T16:07:04.168Z,4.55
2022-10-31T16:09:37.850Z,3.65
2022-10-31T16:12:05.414Z,3.40
2022-10-31T16:14:45.176Z,3.70
2022-10-31T16:17:22.118Z,3.65
2022-10-31T16:20:27.051Z,4.03
2022-10-31T16:22:56.937Z,3.90
2022-10-31T16:25:57.048Z,3.97
2022-10-31T16:28:31.975Z,4.03
2022-10-31T16:31:20.521Z,4.38
2022-10-31T16:33:50.671Z,4.20
2022-10-31T16:36:39.536Z,4.60
2022-10-31T16:39:07.737Z,5.30
2022-10-31T16:41:58.468Z,5.55
2022-10-31T16:44:27.572Z,4.72
2022-10-31T16:47:26.012Z,4.95
2022-10-31T16:50:00.846Z,4.45
2022-10-31T16:52:38.577Z,4.65
2022-10-31T16:55:20.893Z,4.38
2022-10-31T16:58:01.926Z,4.28
2022-10-31T17:00:32.158Z,4.05
2022-10-31T17:02:59.866Z,3.65
2022-10-31T17:05:37.157Z,3.55
2022-10-31T17:08:04.990Z,4.07
2022-10-31T17:10:33.074Z,3.85
2022-10-31T17:13:10.300Z,4.18
2022-10-31T17:15:42.270Z,3.97
2022-10-31T17:18:24.420Z,4.30
2022-10-31T17:20:59.698Z,4.20
2022-10-31T17:23:35.162Z,4.25
2022-10-31T17:26:02.801Z,4.90
2022-10-31T17:28:35.080Z,5.15
2022-10-31T17:31:09.613Z,4.68
2022-10-31T17:33:37.187Z,5.15
2022-10-31T17:36:04.939Z,4.95
2022-10-31T17:38:38.937Z,5.70
2022-10-31T17:41:11.449Z,5.72
2022-10-31T17:43:46.159Z,5.88
2022-10-31T17:46:16.186Z,5.32
2022-10-31T17:48:46.045Z,4.75
2022-10-31T17:51:19.944Z,4.60
2022-10-31T17:53:47.393Z,5.10
2022-10-31T17:56:17.413Z,5.00
2022-10-31T17:58:51.670Z,4.57
2022-10-31T18:01:22.422Z,4.70
2022-10-31T18:03:50.686Z,4.68
2022-10-31T18:06:25.019Z,4.25
2022-10-31T18:09:04.096Z,4.78
2022-10-31T18:11:39.065Z,4.35
2022-10-31T18:14:06.518Z,4.82
2022-10-31T18:16:33.996Z,5.25
2022-10-31T18:19:11.680Z,5.28
2022-10-31T18:21:39.544Z,4.63
2022-10-31T18:24:07.470Z,4.20
2022-10-31T18:26:41.653Z,4.20
2022-10-31T18:29:10.296Z,4.00
2022-10-31T18:31:37.847Z,4.20
2022-10-31T18:34:11.657Z,4.30
2022-10-31T18:36:39.060Z,3.72
2022-10-31T18:39:06.720Z,3.65
2022-10-31T18:41:40.621Z,3.97
2022-10-31T18:44:09.309Z,3.92
2022-10-31T18:46:37.124Z,3.85
2022-10-31T18:49:11.647Z,4.03
2022-10-31T18:51:41.695Z,3.85
2022-10-31T18:54:09.421Z,3.90
2022-10-31T18:56:43.891Z,3.72
2022-10-31T18:59:12.192Z,3.15
2022-10-31T19:01:40.141Z,3.08
2022-10-31T19:04:14.751Z,3.47
2022-10-31T19:06:53.303Z,3.85
2022-10-31T19:09:26.890Z,4.03
2022-10-31T19:11:56.785Z,3.88
2022-10-31T19:14:24.301Z,3.22
2022-10-31T19:17:03.646Z,3.45
2022-10-31T19:19:31.132Z,3.10
2022-10-31T19:21:58.712Z,3.30
2022-10-31T19:24:32.624Z,3.30
2022-10-31T19:27:00.854Z,3.25
2022-10-31T19:29:28.704Z,3.53
2022-10-31T19:32:02.514Z,3.25
2022-10-31T19:34:29.913Z,3.15
2022-10-31T19:36:57.353Z,3.10
2022-10-31T19:39:31.530Z,3.00
2022-10-31T19:41:58.915Z,3.55
2022-10-31T19:44:38.588Z,3.08
2022-10-31T19:47:08.616Z,3.22
2022-10-31T19:49:36.150Z,2.70
2022-10-31T19:52:19.693Z,2.92
2022-10-31T19:54:47.172Z,2.72
2022-10-31T19:57:14.708Z,3.03
2022-10-31T19:59:48.713Z,2.58
2022-10-31T20:02:20.233Z,2.75
2022-10-31T20:04:47.956Z,2.58
2022-10-31T20:07:28.677Z,2.72
2022-10-31T20:10:02.819Z,2.60
2022-10-31T20:12:39.717Z,2.60
2022-10-31T20:15:07.576Z,2.53
2022-10-31T20:17:37.521Z,2.83
2022-10-31T20:20:20.365Z,2.55
2022-10-31T20:22:49.829Z,2.70
2022-10-31T20:25:18.232Z,2.92
2022-10-31T20:27:52.654Z,2.85
2022-10-31T20:30:20.199Z,3.13
2022-10-31T20:32:50.148Z,2.42
2022-10-31T20:35:27.194Z,2.10
2022-10-31T20:37:54.999Z,2.53
2022-10-31T20:40:22.845Z,2.50
2022-10-31T20:42:57.214Z,2.88
2022-10-31T20:45:31.375Z,2.53
2022-10-31T20:48:06.221Z,3.22
2022-10-31T20:50:33.740Z,2.92
2022-10-31T20:53:01.602Z,3.08
2022-10-31T20:55:36.554Z,2.83
2022-10-31T20:58:04.112Z,2.85
2022-10-31T21:00:31.654Z,2.40
2022-10-31T21:03:08.608Z,2.88
2022-10-31T21:05:36.068Z,3.30
2022-10-31T21:08:16.569Z,2.50
2022-10-31T21:10:44.194Z,2.55
2022-10-31T21:13:11.717Z,2.97
2022-10-31T21:15:45.657Z,2.60
2022-10-31T21:18:14.001Z,2.28
2022-10-31T21:20:52.550Z,2.60
2022-10-31T21:23:23.035Z,2.45
2022-10-31T21:25:51.096Z,2.60
2022-10-31T21:28:25.675Z,2.40
2022-10-31T21:31:00.294Z,2.60
2022-10-31T21:33:41.570Z,2.60
2022-10-31T21:36:09.700Z,2.88
2022-10-31T21:38:37.817Z,2.53
2022-10-31T21:41:16.693Z,2.70
2022-10-31T21:43:46.009Z,2.67
2022-10-31T21:46:23.498Z,2.92
2022-10-31T21:48:51.657Z,2.75
2022-10-31T21:51:34.504Z,2.72
2022-10-31T21:54:25.865Z,2.60
2022-10-31T21:57:00.123Z,2.72
2022-10-31T21:59:30.416Z,2.70
2022-10-31T22:02:00.011Z,2.83
2022-10-31T22:04:34.273Z,3.00
2022-10-31T22:07:11.163Z,3.03
2022-10-31T22:09:47.242Z,3.08
2022-10-31T22:12:15.384Z,2.90
2022-10-31T22:14:47.772Z,2.70
2022-10-31T22:17:21.476Z,3.10
2022-10-31T22:19:49.154Z,2.65
2022-10-31T22:22:16.561Z,2.70
2022-10-31T22:24:50.457Z,2.50
2022-10-31T22:27:17.924Z,3.00
2022-10-31T22:29:45.565Z,2.35
2022-10-31T22:32:19.645Z,2.38
2022-10-31T22:34:52.135Z,2.78
2022-10-31T22:37:19.940Z,2.75
2022-10-31T22:39:54.105Z,2.50
2022-10-31T22:42:21.532Z,2.45
2022-10-31T22:44:48.912Z,2.78
2022-10-31T22:47:23.132Z,2.40
2022-10-31T22:49:50.571Z,2.28
2022-10-31T22:52:20.715Z,3.17
2022-10-31T22:54:58.358Z,2.30
2022-10-31T22:57:26.745Z,2.17
2022-10-31T22:59:54.671Z,2.67
2022-10-31T23:02:29.179Z,1.98
2022-10-31T23:04:56.658Z,2.20
2022-10-31T23:07:46.125Z,2.45
2022-10-31T23:10:13.585Z,2.15
2022-10-31T23:13:08.524Z,2.72
2022-10-31T23:15:42.435Z,2.42
2022-10-31T23:18:18.908Z,2.00
2022-10-31T23:21:03.409Z,2.33
2022-10-31T23:23:37.402Z,2.88
2022-10-31T23:26:30.492Z,2.38
2022-10-31T23:28:57.920Z,2.10
2022-10-31T23:31:25.290Z,2.42
2022-10-31T23:33:59.511Z,2.38
2022-10-31T23:36:29.174Z,2.42
2022-10-31T23:38:56.597Z,2.47
2022-10-31T23:41:30.170Z,2.85
2022-10-31T23:44:00.258Z,2.17
2022-10-31T23:46:30.780Z,2.35
2022-10-31T23:49:04.733Z,2.60
2022-10-31T23:51:32.269Z,2.33
2022-10-31T23:53:59.657Z,2.75
2022-10-31T23:56:47.650Z,2.90
2022-10-31T23:59:17.512Z,2.70
